Tiempo atmosférico en la estación meteorológica de Albacete, Albacete (674 m.)



Fecha
DESCASC
Temp. máxima en grados centígrados (hora)
DESCASC
Temp. mínima en grados centígrados (hora)
DESCASC
Temp. media en grados centígrados
DESCASC
Racha de viento máxima en m/sg (hora)
DESCASC
Velocidad máxima media en intervalos de 10 minutos(hora)
DESCASC
Precipitaciones diarias en mm
DESCASC
Precipitaciones de 00:00 a 06:00 en mm
DESCASC
Precipitaciones de 06:00 a 12:00 en mm
DESCASC
Precipitaciones de 12:00 a 18:00 en mm
DESCASC
Precipitaciones de 18:00 a 24:00 en mm
DESCASC
08-12-2019 12.7 (16:00) 2.6 (07:50) 7.6 6.11 (18:30) 1.94 (22:40) 0.1 0 0 0 0.1
07-12-2019 11 (16:10) 1.4 (07:20) 6.2 2.5 (15:00) 1.11 (16:40) 0 0 0 0 0
06-12-2019 13.4 (13:50) 4.5 (08:50) 8.9 5.28 (19:00) 2.22 (19:00) 0 0 0 0 0
05-12-2019 11.1 (15:50) 6.8 (00:00) 9 6.39 (12:30) 2.78 (13:00) 4.2 3.4 0.8 0 0
04-12-2019 9.4 (15:50) 5.2 (00:00) 7.3 6.39 (09:40) 2.22 (10:20) 2.2 0.2 0.5 0.2 1.3
03-12-2019 7.6 (01:10) 5.1 (00:00) 6.3 8.61 (16:30) 3.33 (13:30) 1.8 0.7 0.2 0 0.9
02-12-2019 9.6 (14:40) 6.4 (00:00) 8 11.39 (13:50) 4.44 (14:10) 10 8.3 1.7 0 0
01-12-2019 14.4 (14:50) 6.4 (00:00) 10.4 8.61 (01:20) 3.06 (04:50) 0 0 0 0 0
30-11-2019 19.6 (16:00) 9.9 (00:00) 14.8 5.83 (11:00) 2.78 (11:00) 0 0 0 0 0
29-11-2019 14.9 (14:50) 7 (00:00) 10.9 6.94 (12:20) 3.06 (12:20) 0 0 0 0 0
28-11-2019 11.9 (13:30) 6.7 (00:00) 9.3 10.83 (12:00) 3.89 (11:20) 0 0 0 0 0
27-11-2019 15.1 (14:10) 9.4 (00:00) 12.3 12.5 (14:40) 5.28 (17:00) 0 0 0 0 0
26-11-2019 16.3 (15:40) 10.7 (00:00) 13.5 13.33 (23:10) 5.28 (22:50) 0 0 0 0 0
25-11-2019 14.4 (16:40) 6.7 (00:00) 10.5 10 (11:00) 4.17 (11:00) 0 0 0 0 0
24-11-2019 11.3 (15:40) 3.3 (00:00) 7.3 11.94 (14:40) 4.17 (14:30) 0 0 0 0 0
23-11-2019 11.6 (15:20) 5.7 (00:00) 8.7 17.22 (15:00) 5.83 (09:50) 6.6 6.6 0 0 0
22-11-2019 13 (12:40) 8 (00:00) 10.5 10.28 (22:40) 4.17 (22:10) 10.6 1.2 0 6.6 2.8
21-11-2019 12 (15:10) 6.3 (00:00) 9.2 6.67 (14:10) 2.5 (14:10) 1.2 0 0 0.1 1.1
20-11-2019 13.2 (16:10) 0.6 (00:00) 6.9 8.33 (17:10) 3.33 (17:10) 3.4 0 0 0.5 2.9
19-11-2019 11.9 (14:50) 0.7 (00:00) 6.3 6.11 (13:00) 2.5 (11:00) 0 0 0 0 0
18-11-2019 11.1 (15:40) 2.5 (00:00) 6.8 10 (12:10) 2.5 (13:20) 1.4 1.3 0 0.1 0
17-11-2019 9.8 (13:10) 0.9 (00:00) 5.4 10.83 (14:30) 4.44 (13:20) 9.2 0 0 0 9.2
16-11-2019 10.1 (15:00) 0.8 (00:00) 5.5 10.28 (14:30) 3.61 (14:50) 0 0 0 0 0
15-11-2019 9 (13:40) 3.2 (00:00) 6.1 13.61 (00:40) 6.39 (00:50) 0.4 0.4 0 0 0
14-11-2019 11.3 (00:20) 4.3 (00:00) 7.8 18.33 (08:40) 8.06 (08:50) 1.6 0 0.5 1.1 0
13-11-2019 16.9 (16:10) 7.9 (00:00) 12.4 15 (12:10) 6.39 (11:10) 1.1 0.4 0 0.7 0
12-11-2019 13.6 (14:50) 3.3 (00:00) 8.5 10.83 (15:20) 4.17 (23:00) 0 0 0 0 0
11-11-2019 10.7 (16:40) 2.8 (03:50) 6.7 11.39 (17:00) 3.61 (14:30) 0 0 0 0 0
10-11-2019 10.3 (13:30) 4.1 (00:00) 7.2 12.78 (16:00) 5 (01:20) 0 0 0 0 0

Gráficas

Temp. máximas Temp. mínimas Temp. medias Precipitaciones Rachas de viento máximas Velocidades máximas media en intervalos de 10 minutos

Datos horarios

Fecha y hora oficial Temperatura (ºC) Velocidad del viento (km/h) Dirección del viento Racha (km/h) Dirección de racha Precipitación (mm) Presión (hPa) Tendencia (hPa) Humedad (%)
2019-12-09 23:00:00 6.5 5 Oeste 19 Oeste 0 950.6 0.4 93
2019-12-09 22:00:00 7.4 4 Oeste 16 Oeste 0 950.3 0.8 89
2019-12-09 21:00:00 8.1 5 Oeste 17 Oeste 0 950.6 1.5 83
2019-12-09 20:00:00 8.5 0 Calma 8 Oeste 0 950.2 2 76
2019-12-09 19:00:00 9.2 0 Calma 9 Oeste 0 949.5 1.1 72
2019-12-09 18:00:00 10.3 3 Oeste 23 Oeste 0 949.1 0.9 69
2019-12-09 17:00:00 11 9 Oeste 30 Oeste 0 948.2 -0.3 60
2019-12-09 16:00:00 12.6 7 Oeste 32 Oeste 0 948.4 -0.9 56
2019-12-09 15:00:00 13.5 7 Noroeste 24 Oeste 0 948.2 -2.2 56
2019-12-09 14:00:00 12.6 10 Oeste 32 Oeste 0 948.5 -2.1 61
2019-12-09 13:00:00 11.7 13 Oeste 24 Oeste 0.1 949.3 -0.7 67
2019-12-09 12:00:00 10.4 6 Oeste 31 Oeste 0 950.4 1.1 71
2019-12-09 11:00:00 9 10 Oeste 28 Oeste 0 950.6 1.8 80
2019-12-09 10:00:00 8 9 Oeste 25 Oeste 0 950 1.5 85
2019-12-09 09:00:00 7.9 5 Oeste 27 Oeste 0 949.3 1 93
2019-12-09 08:00:00 8.1 2 Noroeste 15 Noroeste 0 948.8 0.3 96
2019-12-09 07:00:00 8.2 5 Oeste 20 Sudoeste 0 948.5 0.5 96
2019-12-09 06:00:00 8.2 5 Oeste 22 Oeste 0 948.3 1.1 96
2019-12-09 05:00:00 8.3 3 Oeste 17 Oeste 0 948.5 1.6 96
2019-12-09 04:00:00 8.9 3 Noroeste 15 Oeste 0 948 0.6 95
2019-12-09 03:00:00 8.6 3 Oeste 13 Oeste 0 947.2 -0.3 95
2019-12-09 02:00:00 8.4 6 Oeste 20 Oeste 0 946.9 0 95
2019-12-09 01:00:00 8.6 5 Oeste 15 Oeste 0 947.4 0.7 94
2019-12-09 00:00:00 8.7 5 Oeste 16 Noroeste 0 947.5 1 94
2019-12-08 23:00:00 8.5 5 Oeste 19 Oeste 0 946.9 0.6 94
2019-12-08 22:00:00 8.4 2 Noroeste 16 Oeste 0.1 946.7 0.8 93
2019-12-08 21:00:00 8.5 5 Oeste 22 Oeste 0 946.5 0.8 92
2019-12-08 20:00:00 8.1 4 Oeste 20 Oeste 0 946.3 1 90
2019-12-08 19:00:00 8.2 6 Oeste 22 Noroeste 0 945.9 0.8 90
2019-12-08 18:00:00 8.9 3 Noroeste 18 Noroeste 0 945.7 0.3 86
2019-12-08 17:00:00 10.3 5 Oeste 18 Oeste 0 945.3 -0.4 76
2019-12-08 16:00:00 12.4 4 Oeste 14 Oeste 0 945.1 -1.6 71
2019-12-08 15:00:00 12 3 Noroeste 11 Oeste 0 945.4 -2.3 74
2019-12-08 14:00:00 10.6 3 Noroeste 10 Noroeste 0 945.7 -2.2 97
2019-12-08 13:00:00 7 3 Oeste 11 Oeste 0 946.7 -0.6 98
2019-12-08 12:00:00 5.3 0 Calma 10 Oeste 0 947.7 0.7 98
2019-12-08 11:00:00 4 2 Oeste 9 Oeste 0 947.9 1.2 98
2019-12-08 10:00:00 3.4 3 Oeste 12 Oeste 0 947.3 1.2 98
2019-12-08 09:00:00 3.1 2 Oeste 10 Oeste 0 947 1.2 98
2019-12-08 08:00:00 2.7 0 Calma 8 Oeste 0 946.7 0.6 98
2019-12-08 07:00:00 3.1 0 Calma 5 Sur 0 946.1 -0.2 98
2019-12-08 06:00:00 3.4 0 Calma 5 Oeste 0 945.8 -0.6 98
2019-12-08 05:00:00 3.4 0 Calma 9 Sudoeste 0 946.1 -0.6 98
2019-12-08 04:00:00 3.7 3 Oeste 14 Oeste 0 946.3 -0.5 98
2019-12-08 03:00:00 3.4 3 Oeste 11 Oeste 0 946.4 -0.4 97
2019-12-08 02:00:00 3.5 0 Calma 10 Oeste 0 946.7 0.1 97
2019-12-08 01:00:00 4.6 2 Oeste 7 Sudoeste 0 946.8 0.5 97
2019-12-08 00:00:00 4.3 0 Calma 4 Oeste 0 946.8 1.1 95
2019-12-07 23:00:00 5 0 Calma 6 Sudoeste 0 946.6 1 95
2019-12-07 22:00:00 6 0 Calma 6 Sudoeste 0 946.3 0.9 95
2019-12-07 21:00:00 6.9 0 Calma 8 Sudoeste 0 945.7 0.5 95
2019-12-07 20:00:00 6.4 0 Calma 0 Calma 0 945.6 1.1 92
2019-12-07 19:00:00 7.4 0 Calma 3 Oeste 0 945.4 1.3 90
2019-12-07 18:00:00 8.8 0 Calma 5 Oeste 0 945.2 1 86
2019-12-07 17:00:00 9.8 2 Oeste 8 Sudoeste 0 944.5 -0.3 77
2019-12-07 16:00:00 10.5 4 Sudoeste 8 Sudoeste 0 944.1 -1.5 74
2019-12-07 15:00:00 9.3 4 Sudoeste 9 Sudoeste 0 944.2 -1.9 97
2019-12-07 14:00:00 6.4 0 Calma 8 Norte 0 944.8 -1.2 98
2019-12-07 13:00:00 5.9 0 Calma 8 Oeste 0 945.6 -0.1 98
2019-12-07 12:00:00 5.3 0 Calma 6 Oeste 0 946.1 0.8 98
2019-12-07 11:00:00 4.8 0 Calma 6 Este 0 946 1.1 98
2019-12-07 10:00:00 3.9 0 Calma 3 Sudoeste 0 945.7 1 98
2019-12-07 09:00:00 2.8 0 Calma 3 Norte 0 945.3 0.8 98
2019-12-07 08:00:00 2.5 0 Calma 4 Oeste 0 944.9 0.2 98
2019-12-07 07:00:00 1.7 2 Oeste 6 Oeste 0 944.7 0 98
2019-12-07 06:00:00 1.9 0 Calma -- -- 0 944.5 -0.2 97
2019-12-07 05:00:00 2.2 0 Calma 4 Este 0 944.7 0 97
2019-12-07 04:00:00 2.8 0 Calma 5 Este 0 944.7 0 97
2019-12-07 03:00:00 3.4 0 Calma 0 Calma 0 944.7 -0.1 96
2019-12-07 02:00:00 4.2 0 Calma 6 Noroeste 0 944.7 0 95
2019-12-07 01:00:00 5.8 0 Calma 5 Sudeste 0 944.7 0.1 94
2019-12-07 00:00:00 7.2 3 Sudeste 14 Sudeste 0 944.8 0.2 94
2019-12-06 23:00:00 6.8 0 Calma 8 Este 0 944.7 0.5 93
2019-12-06 22:00:00 6.9 2 Este 8 Nordeste 0 944.6 0.7 92
2019-12-06 21:00:00 7.5 2 Este 8 Nordeste 0 944.6 0.9 89
2019-12-06 20:00:00 8.7 4 Este 13 Nordeste 0 944.2 1.1 86
2019-12-06 19:00:00 9.6 8 Este 19 Nordeste 0 943.9 0.9 81
2019-12-06 18:00:00 10.3 6 Nordeste 13 Nordeste 0 943.7 0.9 79
2019-12-06 17:00:00 11.1 5 Nordeste 12 Este 0 943.1 -0.4 78
2019-12-06 16:00:00 11.6 4 Este 14 Nordeste 0 943 -1.2 70
2019-12-06 15:00:00 12.2 5 Este 13 Nordeste 0 942.8 -2.2 64
2019-12-06 14:00:00 13.4 4 Este 15 Norte 0 943.5 -1.7 62
2019-12-06 13:00:00 10.8 4 Nordeste 12 Nordeste 0 944.2 -0.5 75
2019-12-06 12:00:00 10.2 6 Este 13 Este 0 945 0.9 76
2019-12-06 11:00:00 9.4 3 Este 6 Nordeste 0 945.2 1.5 96
2019-12-06 10:00:00 5.8 0 Calma 6 Este 0 944.7 1.5 97
2019-12-06 09:00:00 4.6 0 Calma 4 Este 0 944.1 1.2 97
2019-12-06 08:00:00 5 0 Calma 8 Nordeste 0 943.7 0.9 97
2019-12-06 07:00:00 5.5 3 Este 9 Este 0 943.2 0.5 97
2019-12-06 06:00:00 5.7 0 Calma 6 Este 0 942.9 0.2 97
2019-12-06 05:00:00 6.4 3 Nordeste 9 Este 0 942.8 0.3 97
2019-12-06 04:00:00 6.7 0 Calma 4 Nordeste 0 942.7 0 97
2019-12-06 03:00:00 6.5 0 Calma 7 Este 0 942.7 -0.1 97
2019-12-06 02:00:00 6.1 0 Calma 6 Nordeste 0 942.5 0 97
2019-12-06 01:00:00 6.4 0 Calma 4 Nordeste 0 942.7 0.5 97
2019-12-06 00:00:00 7.1 0 Calma 10 Este 0 942.8 1 97
2019-12-05 23:00:00 7.2 0 Calma 8 Este 0 942.5 1.1 96
2019-12-05 22:00:00 7.9 2 Nordeste 11 Nordeste 0 942.2 1.5 95
2019-12-05 21:00:00 8.6 4 Este 14 Nordeste 0 941.8 2 95
2019-12-05 20:00:00 8.5 4 Nordeste 15 Este 0 941.4 2.3 94
2019-12-05 19:00:00 9.2 6 Nordeste 16 Este 0 940.7 2.1 90
2019-12-05 18:00:00 9.6 4 Nordeste 14 Nordeste 0 939.8 1.4 88
2019-12-05 17:00:00 10 5 Nordeste 19 Este 0 939.1 0.6 86
2019-12-05 16:00:00 10.9 4 Este 12 Nordeste 0 938.6 0.1 77
2019-12-05 15:00:00 10.6 3 Este 13 Sudeste 0 938.4 -0.1 78
2019-12-05 14:00:00 10 5 Este 23 Nordeste 0 938.5 0.3 87
2019-12-05 13:00:00 9.5 10 Nordeste 23 Nordeste 0 938.5 0.9 90
2019-12-05 12:00:00 9 8 Nordeste 20 Este 0 938.5 2.1 98
2019-12-05 11:00:00 8.4 5 Nordeste 14 Este 0 938.2 2.8 98
2019-12-05 10:00:00 7.8 5 Este 13 Este 0.1 937.6 3 98
2019-12-05 09:00:00 7.5 5 Nordeste 14 Nordeste 0 936.4 2.5 98
2019-12-05 08:00:00 7.1 3 Nordeste 13 Nordeste 0.1 935.4 1.8 98
2019-12-05 07:00:00 6.8 2 Nordeste 11 Este 0.6 934.6 1.1 98
2019-12-05 06:00:00 7 0 Calma 8 Noroeste 0.3 933.9 0.7 98
2019-12-05 05:00:00 7 0 Calma 12 Oeste 0.5 933.6 0.8 98
2019-12-05 04:00:00 7.1 0 Calma 7 Oeste 0.5 933.5 0.7 98
2019-12-05 03:00:00 7 0 Calma 6 Noroeste 0.7 933.2 0.7 98
2019-12-05 02:00:00 7.4 0 Calma 6 Oeste 0.6 932.8 0.8 97
2019-12-05 01:00:00 7.2 0 Calma -- -- 0.8 932.8 1.1 97
2019-12-05 00:00:00 7.2 0 Calma 0 Calma 0.6 932.5 1.3 96
2019-12-04 23:00:00 7.4 0 Calma 3 Oeste 0.1 932 1.5 95
2019-12-04 22:00:00 7.6 0 Calma 9 Norte 0.6 931.7 1.5 94
2019-12-04 21:00:00 8.1 0 Calma 12 Oeste 0 931.2 1.5 93
2019-12-04 20:00:00 8.1 3 Oeste 12 Sudoeste 0 930.5 1.1 93
2019-12-04 19:00:00 8.3 3 Oeste 13 Oeste 0 930.2 1.2 92
2019-12-04 18:00:00 8.5 2 Oeste 11 Oeste 0 929.7 1.1 90
2019-12-04 17:00:00 8.6 0 Calma 19 Oeste 0 929.4 0.7 87
2019-12-04 16:00:00 9.2 5 Oeste 18 Oeste 0 929 0.3 83
2019-12-04 15:00:00 8.9 4 Oeste 14 Oeste 0 928.6 -1.1 84
2019-12-04 14:00:00 8.7 2 Oeste 14 Noroeste 0 928.7 -1.3 85
2019-12-04 13:00:00 8.4 5 Oeste 17 Noroeste 0.2 928.7 -0.6 93
2019-12-04 12:00:00 7.4 3 Noroeste 16 Oeste 0 929.7 0.4 95
2019-12-04 11:00:00 7.1 5 Oeste 21 Oeste 0.2 930 1.1 95
2019-12-04 10:00:00 6.7 5 Oeste 23 Oeste 0.2 929.3 -0.5 94
2019-12-04 09:00:00 6.6 4 Oeste 21 Oeste 0 929.3 -0.6 93
2019-12-04 08:00:00 6.6 3 Noroeste 13 Noroeste 0.1 928.9 -1.7 92
2019-12-04 07:00:00 6.7 2 Noroeste 12 Sudoeste 0 929.8 -1.4 92
2019-12-04 06:00:00 6.4 2 Noroeste 16 Noroeste 0 929.9 -1.9 96
2019-12-04 05:00:00 6.2 4 Oeste 15 Oeste 0 930.6 -1.9 97
2019-12-04 04:00:00 5.9 4 Oeste 16 Oeste 0 931.2 -2.2 97
2019-12-04 03:00:00 5.8 4 Oeste 13 Oeste 0 931.8 -2.4 97
2019-12-04 02:00:00 5.5 3 Oeste 12 Oeste 0 932.5 -2.4 97
2019-12-04 01:00:00 5.3 3 Oeste 12 Oeste 0.2 933.4 -1.8 96
2019-12-04 00:00:00 5.3 3 Oeste 10 Oeste 0.4 934.2 -1.2 96
2019-12-03 23:00:00 5.2 0 Calma 9 Nordeste 0.1 934.9 -0.4 93
2019-12-03 22:00:00 5.1 0 Calma 12 Norte 0.2 935.2 -0.2 92
2019-12-03 21:00:00 5.3 3 Nordeste 13 Nordeste 0.1 935.4 0.3 90
2019-12-03 20:00:00 5.4 6 Nordeste 20 Nordeste 0 935.3 0.5 89
2019-12-03 19:00:00 5.6 7 Nordeste 26 Nordeste 0.1 935.4 0.8 90
2019-12-03 18:00:00 5.9 10 Nordeste 31 Este 0 935.1 0.5 90
2019-12-03 17:00:00 6.3 10 Nordeste 31 Nordeste 0 934.8 -0.1 88
2019-12-03 16:00:00 6.7 8 Nordeste 29 Este 0 934.6 -0.8 88
2019-12-03 15:00:00 6.8 9 Nordeste 30 Este 0 934.6 -1.6 88
2019-12-03 14:00:00 7.2 9 Nordeste 28 Nordeste 0 934.9 -1.7 88
2019-12-03 13:00:00 7.5 9 Nordeste 28 Este 0 935.4 -1.4 90
2019-12-03 12:00:00 7.5 8 Nordeste 26 Este 0 936.2 -0.4 92
2019-12-03 11:00:00 6.9 9 Nordeste 26 Este 0 936.6 0.4 95
2019-12-03 10:00:00 6.8 9 Nordeste 22 Nordeste 0 936.8 0.8 95
2019-12-03 09:00:00 6.9 6 Nordeste 24 Nordeste 0.1 936.6 0.6 97
2019-12-03 08:00:00 7.1 7 Nordeste 19 Nordeste 0 936.2 -0.2 97
2019-12-03 07:00:00 7.1 5 Nordeste 15 Nordeste 0.1 936 -0.8 96
2019-12-03 06:00:00 7.1 5 Nordeste 17 Este 0 936 -1.4 96
2019-12-03 05:00:00 7.2 5 Nordeste 19 Nordeste 0.1 936.4 -1.1 96
2019-12-03 04:00:00 7.4 8 Nordeste 19 Este 0.3 936.8 -1 95
2019-12-03 03:00:00 7.5 6 Nordeste 17 Nordeste 0.1 937.4 -0.4 93
2019-12-03 02:00:00 7.5 5 Nordeste 20 Norte 0.2 937.5 -0.4 93
2019-12-03 01:00:00 7.5 5 Nordeste 22 Este 0 937.8 -0.1 89
2019-12-03 00:00:00 7.5 10 Nordeste 26 Nordeste 0 937.8 0 87
2019-12-02 23:00:00 7.6 11 Nordeste 35 Nordeste 0 937.9 1 83
2019-12-02 22:00:00 7.3 10 Nordeste 33 Este 0 937.9 1.8 92
2019-12-02 21:00:00 7.2 9 Nordeste 29 Este 0 937.8 1.9 98
2019-12-02 20:00:00 7.2 12 Nordeste 31 Nordeste 0 936.9 1.1 97
2019-12-02 19:00:00 7.1 8 Nordeste 26 Nordeste 0 936.1 1 95
2019-12-02 18:00:00 7.7 9 Nordeste 28 Nordeste 0 935.9 0.6 93
2019-12-02 17:00:00 8.3 9 Nordeste 36 Este 0 935.8 0.4 91
2019-12-02 16:00:00 8.8 15 Nordeste 37 Nordeste 0 935.1 -0.2 86
2019-12-02 15:00:00 9.4 15 Nordeste 39 Nordeste 0 935.3 -0.5 83
2019-12-02 14:00:00 9 12 Nordeste 41 Este 0 935.4 -0.7 89
2019-12-02 13:00:00 8.7 13 Nordeste 35 Nordeste 0 935.3 0.1 90
2019-12-02 12:00:00 8.1 12 Nordeste 31 Nordeste 0 935.8 1.1 94
2019-12-02 11:00:00 7.4 10 Este 25 Este 0 936.1 1.9 97
2019-12-02 10:00:00 6.6 6 Nordeste 20 Nordeste 0 935.2 1.3 98
2019-12-02 09:00:00 6.5 4 Nordeste 21 Norte 0.1 934.7 0.8 98
2019-12-02 08:00:00 6.5 8 Nordeste 21 Nordeste 0.7 934.2 0.9 98
2019-12-02 07:00:00 6.8 4 Nordeste 17 Este 0.9 933.9 0.7 98
2019-12-02 06:00:00 6.9 3 Nordeste 23 Nordeste 2.6 933.9 1 98
2019-12-02 05:00:00 7.2 8 Nordeste 25 Este 4.3 933.3 0.2 98
2019-12-02 04:00:00 8 4 Este 13 Este 1.4 933.2 0.1 97
2019-12-02 03:00:00 7.9 3 Este 12 Este 0 932.9 -0.3 93
2019-12-02 02:00:00 7.3 0 Calma 5 Norte 0 933.1 -0.1 90
2019-12-02 01:00:00 6.7 0 Calma 5 Este 0 933.1 0 86
2019-12-02 00:00:00 6.5 0 Calma 9 Norte 0 933.2 -0.3 83
2019-12-01 23:00:00 7.6 0 Calma 4 Este 0 933.2 -0.1 79
2019-12-01 22:00:00 7.7 0 Calma 4 Este 0 933.1 0.2 78
2019-12-01 21:00:00 8.1 0 Calma 5 Norte 0 933.5 0.8 74
2019-12-01 20:00:00 8.9 0 Calma 5 Este 0 933.3 0.6 70
2019-12-01 19:00:00 9.2 0 Calma 6 Este 0 932.9 -0.1 67
2019-12-01 18:00:00 10.6 0 Calma 8 Oeste 0 932.7 -0.7 58
2019-12-01 17:00:00 12.2 4 Oeste 10 Oeste 0 932.7 -1.2 50
2019-12-01 16:00:00 13.7 3 Oeste 12 Oeste 0 933 -1.7 45
2019-12-01 15:00:00 14 5 Oeste 19 Oeste 0 933.4 -2.1 43
2019-12-01 14:00:00 13.2 6 Oeste 17 Sur 0 933.9 -2.2 46
2019-12-01 13:00:00 11.2 6 Oeste 20 Oeste 0 934.7 -1.4 54
2019-12-01 12:00:00 11.3 8 Oeste 21 Sudoeste 0 935.5 -0.3 56
2019-12-01 11:00:00 10.7 6 Oeste 19 Oeste 0 936.1 0.5 64
2019-12-01 10:00:00 8.4 4 Oeste 19 Oeste 0 936.1 0.9 83
2019-12-01 09:00:00 7.4 2 Oeste 10 Oeste 0 935.8 0.4 89
2019-12-01 08:00:00 8.1 2 Oeste 10 Oeste 0 935.6 0.3 90
2019-12-01 07:00:00 8.5 4 Oeste 19 Oeste 0 935.2 -0.1 89
2019-12-01 06:00:00 8.9 9 Oeste 28 Sudoeste 0 935.4 -0.3 87
2019-12-01 05:00:00 9.2 11 Oeste 30 Oeste 0 935.3 -0.4 91
2019-12-01 04:00:00 10.4 9 Oeste 28 Oeste 0 935.3 -1.3 91
2019-12-01 03:00:00 10.9 5 Oeste 24 Sudoeste 0 935.7 -2 87
2019-12-01 02:00:00 11 9 Sudoeste 31 Oeste 0 935.7 -2.2 86
2019-12-01 01:00:00 10.9 5 Sudoeste 15 Oeste 0 936.6 -2 84
2019-12-01 00:00:00 10.6 4 Sudoeste 17 Sudoeste 0 937.7 -1.2 82
2019-11-30 23:00:00 11.2 5 Sudoeste 19 Sudoeste 0 937.9 -1.3 84
2019-11-30 22:00:00 11 0 Calma 8 Sudoeste 0 938.6 -0.6 88
2019-11-30 21:00:00 11.6 0 Calma 12 Oeste 0 938.9 -0.1 85
2019-11-30 20:00:00 12.1 2 Oeste 14 Oeste 0 939.2 0.5 83
2019-11-30 19:00:00 12.5 0 Calma 13 Oeste 0 939.2 0.1 80
2019-11-30 18:00:00 14.3 4 Oeste 14 Sudoeste 0 939 -0.6 68
2019-11-30 17:00:00 17.6 2 Noroeste 10 Norte 0 938.7 -2.1 52
2019-11-30 16:00:00 19.6 3 Oeste 13 Oeste 0 939.1 -2.9 46
2019-11-30 15:00:00 18.8 3 Oeste 13 Oeste 0 939.6 -3.3 49
2019-11-30 14:00:00 17.9 5 Oeste 14 Oeste 0 940.8 -2.7 53
2019-11-30 13:00:00 16.4 7 Oeste 19 Oeste 0 942 -1.5 55
2019-11-30 12:00:00 15.9 5 Oeste 18 Oeste 0 942.9 -0.4 59
2019-11-30 11:00:00 14.1 10 Oeste 21 Oeste 0 943.5 0.2 68
2019-11-30 10:00:00 11.5 5 Sudoeste 14 Sudoeste 0 943.5 -0.1 83
2019-11-30 09:00:00 10 3 Sudoeste 12 Sudoeste 0 943.3 0.1 89
2019-11-30 08:00:00 10.3 4 Sudoeste 13 Oeste 0 943.3 0.1 89
2019-11-30 07:00:00 10.8 2 Sudoeste 10 Sudoeste 0 943.6 -0.2 89
2019-11-30 06:00:00 10.8 2 Oeste 11 Sudoeste 0 943.2 -0.6 89
2019-11-30 05:00:00 10.9 4 Sudoeste 12 Sudoeste 0 943.2 -1 89
2019-11-30 04:00:00 10.9 2 Oeste 14 Sudoeste 0 943.8 -0.4 90
2019-11-30 03:00:00 10.8 0 Calma 16 Oeste 0 943.8 -0.3 90
2019-11-30 02:00:00 11 4 Oeste 18 Oeste 0 944.2 0 90
2019-11-30 01:00:00 11.1 3 Oeste 14 Oeste 0 944.2 -0.1 88
2019-11-30 00:00:00 11.3 5 Oeste 14 Oeste 0 944.1 -0.2 87
2019-11-29 23:00:00 11.6 0 Calma 13 Oeste 0 944.2 0.3 85
2019-11-29 22:00:00 12.1 0 Calma 8 Oeste 0 944.3 0.7 85
2019-11-29 21:00:00 12.5 0 Calma 8 Oeste 0 944.3 1 84
2019-11-29 20:00:00 12.8 0 Calma 15 Oeste 0 943.9 0.9 84
2019-11-29 19:00:00 13.2 0 Calma 12 Oeste 0 943.6 0.9 82
2019-11-29 18:00:00 13.7 2 Oeste 17 Oeste 0 943.3 0.8 79
2019-11-29 17:00:00 14.3 5 Oeste 18 Oeste 0 943 0.1 74
2019-11-29 16:00:00 14.6 3 Noroeste 17 Oeste 0 942.7 -0.5 73
2019-11-29 15:00:00 14.9 4 Oeste 17 Oeste 0 942.5 -1.4 72
2019-11-29 14:00:00 14.5 6 Oeste 23 Oeste 0 942.9 -0.9 74
2019-11-29 13:00:00 14.4 10 Oeste 25 Oeste 0 943.2 0.1 74
2019-11-29 12:00:00 13 7 Oeste 19 Sudoeste 0 943.9 1.3 79
2019-11-29 11:00:00 11.9 8 Oeste 23 Oeste 0 943.8 1.7 80
2019-11-29 10:00:00 10.8 4 Sudoeste 19 Oeste 0 943.1 0.9 80
2019-11-29 09:00:00 10.6 5 Oeste 14 Sudoeste 0 942.6 1 80
2019-11-29 08:00:00 10.3 3 Oeste 17 Oeste 0 942.1 0.8 80
2019-11-29 07:00:00 9.7 4 Oeste 11 Sudoeste 0 942.2 0.9 83
2019-11-29 06:00:00 8.9 0 Calma 6 Este 0 941.6 0.5 88
2019-11-29 05:00:00 7.8 0 Calma 3 Sudoeste 0 941.3 0.4 92
2019-11-29 04:00:00 7.2 0 Calma -- -- 0 941.3 0.6 90
2019-11-29 03:00:00 7.5 0 Calma 3 Nordeste 0 941.1 0.1 87
2019-11-29 02:00:00 8.6 0 Calma 14 Sudoeste 0 940.9 -0.2 80
2019-11-29 01:00:00 9.2 4 Oeste 15 Oeste 0 940.7 -0.3 80
2019-11-29 00:00:00 9.4 4 Oeste 19 Sudoeste 0 941 0.3 79
2019-11-28 23:00:00 10.3 5 Sudoeste 20 Sudoeste 0 941.1 0.8 75
2019-11-28 22:00:00 10.3 8 Sudoeste 20 Sudoeste 0 941 0.7 76
2019-11-28 21:00:00 10.3 7 Sudoeste 18 Sudoeste 0 940.7 0.5 76
2019-11-28 20:00:00 10.6 5 Oeste 22 Sudoeste 0 940.3 0.1 75
2019-11-28 19:00:00 10.5 7 Sudoeste 23 Sudoeste 0 940.3 0.5 76
2019-11-28 18:00:00 10.4 8 Oeste 24 Oeste 0 940.2 0.4 77
2019-11-28 17:00:00 10.8 7 Oeste 21 Oeste 0 940.2 0 76
2019-11-28 16:00:00 11.2 6 Oeste 23 Oeste 0 939.8 -0.9 73
2019-11-28 15:00:00 11.5 5 Noroeste 31 Oeste 0 939.8 -1.4 70
2019-11-28 14:00:00 11.8 7 Oeste 25 Oeste 0 940.2 -1.2 69
2019-11-28 13:00:00 11.5 7 Oeste 26 Noroeste 0 940.7 -0.5 71
2019-11-28 12:00:00 11 13 Oeste 39 Oeste 0 941.2 0.6 69
2019-11-28 11:00:00 11.4 10 Oeste 27 Oeste 0 941.4 1.8 73
2019-11-28 10:00:00 9.1 8 Oeste 19 Oeste 0 941.2 2.2 87
2019-11-28 09:00:00 7.4 2 Sudoeste 11 Sudoeste 0 940.6 2.3 94
2019-11-28 08:00:00 6.8 0 Calma 11 Oeste 0 939.6 1.5 92
2019-11-28 07:00:00 7.1 4 Oeste 18 Oeste 0 939 1 90
2019-11-28 06:00:00 6.8 0 Calma 10 Oeste 0 938.3 0.1 90
2019-11-28 05:00:00 7.6 0 Calma 15 Oeste 0 938.1 0.1 85
2019-11-28 04:00:00 8.1 6 Oeste 18 Oeste 0 938 -0.3 82
2019-11-28 03:00:00 9 5 Oeste 21 Sudoeste 0 938.2 -0.2 81
2019-11-28 02:00:00 9.1 5 Sudoeste 19 Oeste 0 938 0.1 81
2019-11-28 01:00:00 8.8 3 Sudoeste 18 Oeste 0 938.3 1.1 82
2019-11-28 00:00:00 9.5 4 Oeste 22 Oeste 0 938.4 1.9 80
2019-11-27 23:00:00 9.8 12 Oeste 36 Oeste 0 937.9 2 80
2019-11-27 22:00:00 9.9 19 Oeste 37 Oeste 0 937.2 1.2 80
2019-11-27 21:00:00 10.1 9 Oeste 33 Oeste 0 936.5 0.9 80
2019-11-27 20:00:00 10.6 6 Oeste 27 Oeste 0 935.9 0.5 77
2019-11-27 19:00:00 10.7 6 Oeste 25 Oeste 0 936 0.5 70
2019-11-27 18:00:00 11.6 9 Oeste 35 Oeste 0 935.6 -0.1 62
2019-11-27 17:00:00 12.9 19 Oeste 38 Oeste 0 935.4 -0.8 53
2019-11-27 16:00:00 13.6 13 Oeste 36 Oeste 0 935.5 -0.8 50
2019-11-27 15:00:00 13.9 15 Oeste 45 Oeste 0 935.7 -1.1 50
2019-11-27 14:00:00 14.9 12 Oeste 36 Oeste 0 936.2 -0.3 48
2019-11-27 06:00:00 10.7 0 Calma 13 Sudoeste 0 933.4 -0.4 90
2019-11-27 05:00:00 11.5 8 Oeste 24 Oeste 0 933.4 -0.4 87
2019-11-27 04:00:00 12.3 9 Oeste 24 Oeste 0 933.5 -0.9 89
2019-11-27 03:00:00 12.2 2 Oeste 27 Sudoeste 0 933.8 -0.7 94
2019-11-27 02:00:00 12.4 10 Sudoeste 26 Sudoeste 0 933.8 -0.1 88
2019-11-27 01:00:00 12.9 8 Oeste 28 Oeste 0 934.4 0.2 83
2019-11-27 00:00:00 13 14 Oeste 48 Sudoeste 0 934.5 0.2 82
2019-11-26 23:00:00 13.8 18 Oeste 41 Oeste 0 933.9 -1.1 75
2019-11-26 22:00:00 13.5 11 Oeste 27 Oeste 0 934.2 -0.8 80
2019-11-26 21:00:00 13 4 Oeste 31 Sudoeste 0 934.3 -0.8 82
2019-11-26 20:00:00 13.5 2 Oeste 22 Sudoeste 0 935 0.1 79
2019-11-26 19:00:00 13.3 4 Oeste 21 Sudoeste 0 935 -0.4 80
2019-11-26 18:00:00 14 5 Oeste 17 Oeste 0 935.1 -0.7 77
2019-11-26 17:00:00 15.2 9 Oeste 26 Sudoeste 0 934.9 -1.6 70
2019-11-26 16:00:00 15.8 9 Oeste 33 Noroeste 0 935.4 -1.5 70
2019-11-26 15:00:00 15.3 9 Oeste 26 Oeste 0 935.8 -2 73
2019-11-26 14:00:00 15.3 8 Oeste 27 Oeste 0 936.5 -2.1 73
2019-11-26 13:00:00 14.7 8 Oeste 28 Sudoeste 0 936.9 -1.7 72
2019-11-26 12:00:00 14.2 10 Oeste 28 Oeste 0 937.8 -0.4 70
2019-11-26 11:00:00 12.8 6 Oeste 18 Oeste 0 938.6 0.8 77
2019-11-26 10:00:00 11.2 0 Calma 13 Oeste 0 938.6 0.7 79
2019-11-26 09:00:00 11.1 3 Oeste 12 Oeste 0 938.2 0.3 80
2019-11-26 08:00:00 10.9 2 Oeste 14 Oeste 0 937.8 -0.3 80
2019-11-26 07:00:00 10.9 5 Oeste 15 Oeste 0 937.9 -0.1 80
2019-11-26 06:00:00 10.7 3 Oeste 13 Sudoeste 0 937.9 0 84
2019-11-26 05:00:00 11 0 Calma 17 Oeste 0 938.1 0 86
2019-11-26 04:00:00 11 5 Oeste 19 Oeste 0 938 -0.8 86
2019-11-26 03:00:00 11.3 10 Oeste 24 Noroeste 0 937.9 -1.3 86
2019-11-26 02:00:00 11.6 12 Oeste 28 Oeste 0 938.1 -1 88
2019-11-26 01:00:00 11.4 9 Oeste 23 Oeste 0 938.8 -0.2 88
2019-11-26 00:00:00 11.7 6 Oeste 17 Sudoeste 0 939.2 0.6 89
2019-11-25 23:00:00 11.5 4 Oeste 13 Oeste 0 939.1 0.8 91
2019-11-25 22:00:00 11.1 0 Calma 13 Noroeste 0 939 1 91
2019-11-25 21:00:00 11.7 4 Oeste 13 Oeste 0 938.6 1 91
2019-11-25 20:00:00 12.1 4 Oeste 15 Oeste 0 938.3 1 92
2019-11-25 19:00:00 12.7 3 Oeste 16 Sudoeste 0 938 0.8 89
2019-11-25 18:00:00 13.5 7 Oeste 23 Oeste 0 937.6 0.8 81
2019-11-25 17:00:00 14.1 8 Oeste 29 Oeste 0 937.3 0 77
2019-11-25 16:00:00 13 11 Oeste 34 Oeste 0 937.2 -0.4 87
2019-11-25 15:00:00 13.5 9 Oeste 34 Oeste 0 936.8 -1.1 79
2019-11-25 14:00:00 13.1 10 Oeste 29 Oeste 0 937.3 -0.7 82
2019-11-25 13:00:00 12.3 10 Oeste 33 Oeste 0 937.6 -0.1 81
2019-11-25 12:00:00 11.9 13 Oeste 35 Oeste 0 937.9 0.6 83
2019-11-25 11:00:00 11.1 15 Oeste 36 Oeste 0 938 0.6 84
2019-11-25 10:00:00 10.3 11 Oeste 29 Oeste 0 937.7 0.9 87
2019-11-25 09:00:00 9.5 8 Oeste 22 Sudoeste 0 937.3 0.3 88
2019-11-25 08:00:00 9.4 9 Oeste 23 Oeste 0 937.4 0.4 88
2019-11-25 07:00:00 8.9 6 Oeste 25 Oeste 0 936.8 -0.5 90
2019-11-25 06:00:00 8.6 8 Oeste 21 Oeste 0 937 -0.4 90
2019-11-25 05:00:00 8.4 8 Oeste 23 Sudoeste 0 937 -1.1 88
2019-11-25 04:00:00 8.7 7 Oeste 23 Oeste 0 937.3 -0.9 87
2019-11-25 03:00:00 8.7 9 Oeste 21 Oeste 0 937.4 -0.8 86
2019-11-25 02:00:00 8.3 8 Oeste 30 Oeste 0 938.1 -0.3 87
2019-11-25 01:00:00 7.5 10 Oeste 27 Oeste 0 938.2 -0.2 88
2019-11-25 00:00:00 6.7 7 Oeste 17 Oeste 0 938.2 0.4 87
2019-11-24 23:00:00 6.8 6 Oeste 14 Oeste 0 938.4 0.9 83
2019-11-24 22:00:00 6.8 3 Oeste 14 Noroeste 0 938.4 1.1 83
2019-11-24 21:00:00 6.7 6 Oeste 17 Oeste 0 937.8 0.9 82
2019-11-24 20:00:00 6.4 0 Calma 10 Oeste 0 937.5 0.9 77
2019-11-24 19:00:00 7.1 0 Calma 14 Oeste 0 937.3 0.8 73
2019-11-24 18:00:00 8.5 6 Oeste 19 Noroeste 0 936.9 0.3 69
2019-11-24 17:00:00 9.8 8 Oeste 26 Oeste 0 936.6 0 58
2019-11-24 16:00:00 11.1 9 Oeste 32 Oeste 0 936.5 -0.7 52
2019-11-24 15:00:00 11 11 Oeste 43 Oeste 0 936.6 -0.7 55
2019-11-24 14:00:00 11 9 Oeste 34 Oeste 0 936.6 -1.3 56
2019-11-24 13:00:00 10.7 9 Oeste 28 Noroeste 0 937.2 -0.1 59
2019-11-24 12:00:00 9.3 11 Oeste 37 Oeste 0 937.3 0.2 62
2019-11-24 11:00:00 8.7 9 Oeste 36 Oeste 0 937.9 1.9 66
2019-11-24 10:00:00 5.9 8 Oeste 18 Oeste 0 937.3 2.2 84
2019-11-24 09:00:00 3.5 0 Calma 17 Oeste 0 937.1 2.4 87
2019-11-24 08:00:00 3.6 8 Oeste 21 Oeste 0 936 1.9 87
2019-11-24 07:00:00 3.8 7 Oeste 21 Oeste 0 935.1 1 85
2019-11-24 06:00:00 3.8 5 Oeste 16 Oeste 0 934.7 0.8 85
2019-11-24 05:00:00 4.3 5 Oeste 18 Oeste 0 934.1 0.5 84
2019-11-24 04:00:00 3.8 0 Calma 7 Sudoeste 0 934.1 0.7 86
2019-11-24 03:00:00 4.6 3 Oeste 23 Oeste 0 933.9 1 83
2019-11-24 02:00:00 5.1 10 Oeste 26 Oeste 0 933.6 1 80
2019-11-24 01:00:00 5.3 8 Oeste 26 Oeste 0 933.4 1.3 79
2019-11-24 00:00:00 5.7 4 Sudoeste 21 Oeste 0 932.9 1.3 77
2019-11-23 23:00:00 6.3 10 Oeste 21 Oeste 0 932.6 1.8 74
2019-11-23 22:00:00 6.2 4 Oeste 26 Oeste 0 932.1 2 75
2019-11-23 21:00:00 6.9 7 Oeste 22 Oeste 0 931.6 2.5 72
2019-11-23 20:00:00 7.4 7 Oeste 32 Oeste 0 930.8 2.7 69
2019-11-23 19:00:00 8.3 12 Oeste 30 Oeste 0 930.1 3.1 65
2019-11-23 18:00:00 9.4 10 Oeste 31 Oeste 0 929.1 3.1 60
2019-11-23 17:00:00 10.1 13 Oeste 35 Oeste 0 928.1 2.4 54
2019-11-23 16:00:00 10.4 12 Oeste 49 Oeste 0 927 1.8 52
2019-11-23 15:00:00 10.8 20 Oeste 62 Oeste 0 926 0.2 47
2019-11-23 14:00:00 11.1 16 Oeste 56 Noroeste 0 925.7 0.6 50
2019-11-23 13:00:00 9.5 14 Oeste 48 Oeste 0 925.2 1.7 54
2019-11-23 12:00:00 10.3 17 Oeste 48 Oeste 0 925.8 3.5 54
2019-11-23 11:00:00 9.6 16 Oeste 45 Oeste 0 925.1 3.9 62
2019-11-23 10:00:00 7.6 18 Oeste 48 Oeste 0 923.5 3.5 73
2019-11-23 09:00:00 7.4 17 Oeste 46 Noroeste 0 922.3 2.9 74
2019-11-23 08:00:00 7.3 18 Oeste 44 Oeste 0 921.2 2.1 75
2019-11-23 07:00:00 7.8 17 Oeste 44 Oeste 0 920 1 75
2019-11-23 06:00:00 8 21 Oeste 48 Oeste 0 919.4 0.8 79
2019-11-23 05:00:00 7.9 18 Oeste 46 Oeste 0.7 919.1 0.2 83
2019-11-23 04:00:00 7.6 12 Oeste 34 Oeste 3.3 919 -0.5 91
2019-11-23 03:00:00 8.9 9 Oeste 24 Oeste 0 918.6 -0.7 83
2019-11-23 02:00:00 9.2 13 Oeste 36 Oeste 0.7 918.9 -0.4 82
2019-11-23 01:00:00 9.5 13 Oeste 29 Oeste 1.9 919.5 0 90
2019-11-23 00:00:00 10.5 6 Oeste 36 Oeste 0 919.3 0 76
2019-11-22 23:00:00 10.6 12 Oeste 37 Sudoeste 0 919.3 0.6 72
2019-11-22 22:00:00 10.9 12 Oeste 32 Sur 0 919.5 0.4 80
2019-11-22 21:00:00 11.5 9 Oeste 23 Sudoeste 0 919.3 -0.1 94
2019-11-22 20:00:00 10.8 6 Sudoeste 28 Sur 0.8 918.7 -1 97
2019-11-22 19:00:00 10.8 5 Sur 30 Sur 2 919.1 -1 97
2019-11-22 18:00:00 10.5 9 Sur 27 Sudoeste 2.4 919.4 -2 97
2019-11-22 17:00:00 10.5 8 Sur 32 Sur 1.2 919.7 -2.9 95
2019-11-22 16:00:00 10.9 7 Sur 21 Sudoeste 0.8 920.1 -3.7 95
2019-11-22 15:00:00 10.8 5 Sur 23 Sur 2.1 921.4 -4.2 93
2019-11-22 14:00:00 11.6 4 Sur 19 Sur 0.1 922.6 -4 83
2019-11-22 13:00:00 12.9 6 Sur 25 Sur 0 923.8 -3.3 73
2019-11-22 12:00:00 12 10 Sur 24 Sur 0 925.6 -2.3 73
2019-11-22 11:00:00 11.2 7 Sur 20 Sur 0 926.6 -1.2 82
2019-11-22 10:00:00 9.9 5 Sur 16 Sudoeste 0 927.1 -0.9 90
2019-11-22 09:00:00 8.9 3 Sur 13 Sur 0 927.9 -0.6 94
2019-11-22 08:00:00 8.7 4 Sur 12 Sur 0 927.8 -0.9 95
2019-11-22 07:00:00 8.6 2 Sur 10 Sur 0 928 -1.3 97
2019-11-22 06:00:00 8.3 2 Sur 10 Sur 0.1 928.5 -0.9 97
2019-11-22 05:00:00 8 0 Calma 12 Sudoeste 0 928.7 -1.1 98
2019-11-22 04:00:00 8.1 0 Calma 8 Sur 0 929.3 -1.3 98
2019-11-22 03:00:00 8.1 2 Sur 10 Sur 0 929.4 -1.6 98
2019-11-22 02:00:00 8.3 0 Calma 6 Sur 0.1 929.8 -1.2 97
2019-11-22 01:00:00 8.6 0 Calma 8 Sudoeste 1 930.6 -0.4 97
2019-11-22 00:00:00 9.2 0 Calma 8 Sudoeste 0.3 931 -0.2 91
2019-11-21 23:00:00 9.2 0 Calma 7 Sur 0 931 -0.1 90
2019-11-21 22:00:00 9.1 0 Calma 8 Sur 0.1 931 0.1 90
2019-11-21 21:00:00 9.3 0 Calma 9 Sudoeste 0.1 931.2 0.7 91
2019-11-21 20:00:00 9.4 2 Sudoeste 10 Oeste 0.3 931.1 0.6 90
2019-11-21 19:00:00 9.6 2 Sudoeste 17 Sudoeste 0.3 930.9 0.5 87
2019-11-21 18:00:00 10.4 6 Sudoeste 18 Sudoeste 0 930.5 0.1 80
2019-11-21 17:00:00 10.5 4 Oeste 19 Sudoeste 0 930.5 -0.4 77
2019-11-21 16:00:00 11.2 6 Oeste 21 Sudoeste 0.1 930.4 -1.3 70
2019-11-21 15:00:00 11.8 8 Oeste 24 Oeste 0 930.4 -1.9 65
2019-11-21 14:00:00 11.6 8 Sudoeste 23 Sudoeste 0 930.9 -1.6 68
2019-11-21 13:00:00 10.7 6 Sudoeste 21 Oeste 0 931.7 -1 71
2019-11-21 12:00:00 10.9 5 Oeste 16 Oeste 0 932.3 0.2 76
2019-11-21 11:00:00 9.4 4 Oeste 14 Sudoeste 0 932.5 0.7 84
2019-11-21 10:00:00 8.3 4 Sudoeste 12 Sudoeste 0 932.7 1.3 89
2019-11-21 09:00:00 7.2 0 Calma 7 Sudeste 0 932.1 0.8 92
2019-11-21 08:00:00 -- -- -- -- -- -- -- -- --
2019-11-21 07:00:00 -- -- -- -- -- -- -- -- --
2019-11-21 06:00:00 -- -- -- -- -- -- -- -- --
2019-11-21 05:00:00 -- -- -- -- -- -- -- -- --
2019-11-21 04:00:00 -- -- -- -- -- -- -- -- --
2019-11-21 03:00:00 -- -- -- -- -- -- -- -- --
2019-11-21 02:00:00 -- -- -- -- -- -- -- -- --
2019-11-21 01:00:00 -- -- -- -- -- -- -- -- --
2019-11-21 00:00:00 -- -- -- -- -- -- -- -- --
2019-11-20 23:00:00 -- -- -- -- -- -- -- -- --
2019-11-20 22:00:00 -- -- -- -- -- -- -- -- --
2019-11-20 21:00:00 -- -- -- -- -- -- -- -- --
2019-11-20 20:00:00 -- -- -- -- -- -- -- -- --
2019-11-20 19:00:00 6.7 0 Calma 15 Oeste 1 932.1 0.7 89
2019-11-20 18:00:00 7.8 5 Oeste 30 Oeste 0.5 932 0.5 73
2019-11-20 17:00:00 10.3 10 Oeste 24 Oeste 0 931.5 -0.8 46
2019-11-20 16:00:00 13 4 Oeste 19 Oeste 0 931.4 -1.7 38
2019-11-20 15:00:00 11.7 0 Calma 8 Sudoeste 0 931.5 -2.4 43
2019-11-20 14:00:00 12.6 0 Calma 9 Oeste 0 932.3 -2.3 41
2019-11-20 13:00:00 11.4 0 Calma 9 Oeste 0 933.1 -1.5 43
2019-11-20 12:00:00 10.7 2 Sudoeste 6 Sudoeste 0 933.9 -0.6 50
2019-11-20 11:00:00 8 2 Sudoeste 8 Sudoeste 0 934.6 0.2 63
2019-11-20 10:00:00 2.8 0 Calma 0 Calma 0 934.6 0.1 95
2019-11-20 09:00:00 1.2 0 Calma 5 Sudoeste 0 934.5 -0.1 95
2019-11-20 08:00:00 0.6 0 Calma -- -- 0 934.4 -0.5 94
2019-11-20 07:00:00 1.5 0 Calma 4 Sudoeste 0 934.5 -0.9 94
2019-11-20 06:00:00 1.9 0 Calma 3 Sur 0 934.6 -1.1 93
2019-11-20 05:00:00 2.2 0 Calma -- -- 0 934.9 -1.1 90
2019-11-20 04:00:00 3.3 0 Calma -- -- 0 935.4 -1 85
2019-11-20 03:00:00 4.2 0 Calma 5 Sudoeste 0 935.7 -1.1 83
2019-11-20 02:00:00 4.4 0 Calma 8 Oeste 0 936 -1.4 81
2019-11-20 01:00:00 4.6 0 Calma 6 Sudoeste 0 936.4 -1 80
2019-11-20 00:00:00 5 0 Calma 7 Sudoeste 0 936.8 -0.6 79
2019-11-19 23:00:00 5.4 0 Calma 8 Sudoeste 0 937.4 0 78
2019-11-19 22:00:00 5.6 0 Calma 8 Sur 0 937.4 0.2 79
2019-11-19 21:00:00 5.8 3 Oeste 6 Sudoeste 0 937.4 0.3 77
2019-11-19 20:00:00 6.3 0 Calma 7 Oeste 0 937.4 0.6 75
2019-11-19 19:00:00 7.1 0 Calma 7 Oeste 0 937.2 0.1 70
2019-11-19 18:00:00 8 0 Calma 12 Noroeste 0 937.1 -0.3 62
2019-11-19 17:00:00 9.3 4 Oeste 19 Oeste 0 936.8 -1.2 54
2019-11-19 16:00:00 10.5 4 Oeste 20 Oeste 0 937.1 -1.7 49
2019-11-19 15:00:00 11.5 6 Oeste 21 Oeste 0 937.4 -2 45
2019-11-19 14:00:00 10.9 5 Oeste 22 Oeste 0 938 -1.9 50
2019-11-19 13:00:00 9.4 7 Oeste 22 Oeste 0 938.8 -1.2 52
2019-11-19 12:00:00 8.5 6 Oeste 19 Oeste 0 939.4 -0.1 57
2019-11-19 11:00:00 6.7 9 Oeste 18 Oeste 0 939.9 1.1 68
2019-11-19 10:00:00 3 4 Oeste 13 Sudoeste 0 940 1.3 84
2019-11-19 09:00:00 1 3 Sudoeste 15 Oeste 0 939.5 1.1 88
2019-11-19 08:00:00 1.2 5 Oeste 16 Oeste 0 938.8 0.6 87
2019-11-19 07:00:00 1.1 2 Oeste 12 Oeste 0 938.7 0.3 87
2019-11-19 06:00:00 1.3 2 Oeste 12 Oeste 0 938.4 -0.3 87
2019-11-19 05:00:00 1.3 0 Calma 10 Oeste 0 938.2 -0.5 86
2019-11-19 04:00:00 1.7 2 Oeste 13 Oeste 0 938.4 -0.5 86
2019-11-19 03:00:00 2.2 4 Oeste 14 Oeste 0 938.7 -0.3 84
2019-11-19 02:00:00 2.5 4 Oeste 17 Sudoeste 0 938.7 0 84
2019-11-19 01:00:00 2.6 4 Oeste 17 Oeste 0 938.9 0.9 83
2019-11-19 00:00:00 3.4 5 Oeste 16 Oeste 0 939 1.4 80
2019-11-18 23:00:00 3.4 7 Oeste 17 Oeste 0 938.7 1.4 80
2019-11-18 22:00:00 4.2 4 Oeste 22 Oeste 0 938 1.3 76
2019-11-18 21:00:00 4.7 6 Oeste 22 Oeste 0 937.6 1.3 75
2019-11-18 20:00:00 6 4 Oeste 13 Oeste 0 937.3 1.5 71
2019-11-18 19:00:00 7.3 5 Oeste 14 Oeste 0 936.7 1.4 61
2019-11-18 18:00:00 8.7 3 Noroeste 15 Sudoeste 0 936.3 1.7 50
2019-11-18 17:00:00 9.6 3 Noroeste 23 Oeste 0 935.8 1.1 47
2019-11-18 16:00:00 10.5 5 Noroeste 27 Noroeste 0 935.3 0.8 44
2019-11-18 15:00:00 10.3 5 Noroeste 26 Oeste 0 934.6 -0.1 48
2019-11-18 14:00:00 9.1 5 Noroeste 27 Oeste 0.1 934.7 0.4 53
2019-11-18 13:00:00 8.6 6 Oeste 36 Oeste 0 934.5 0.8 64
2019-11-18 12:00:00 9 7 Oeste 24 Oeste 0 934.7 2 66
2019-11-18 11:00:00 7.1 6 Oeste 28 Oeste 0 934.3 1.9 76
2019-11-18 10:00:00 4.5 6 Oeste 23 Oeste 0 933.7 1.5 91
2019-11-18 09:00:00 2.8 5 Oeste 15 Oeste 0 932.7 0.9 97
2019-11-18 08:00:00 2.9 4 Oeste 15 Oeste 0 932.4 1.3 98
2019-11-18 07:00:00 3.2 5 Oeste 14 Oeste 0 932.2 0.7 98
2019-11-18 06:00:00 3.8 6 Oeste 19 Oeste 0 931.8 0.5 98
2019-11-18 05:00:00 4.6 2 Oeste 15 Oeste 0 931.1 -0.2 97
2019-11-18 04:00:00 5.5 4 Oeste 15 Oeste 0 931.5 -0.5 98
2019-11-18 03:00:00 6 3 Sudoeste 10 Sudoeste 0 931.3 -0.8 98
2019-11-18 02:00:00 6.1 3 Sudoeste 11 Sudoeste 0.3 931.3 -1 98
2019-11-18 01:00:00 6.1 0 Calma 11 Oeste 1 932 -0.4 98
2019-11-18 00:00:00 7 5 Oeste 14 Sudoeste 6 932.1 -0.5 98
2019-11-17 23:00:00 7 0 Calma 21 Oeste 2.1 932.3 -0.9 97
2019-11-17 22:00:00 7 7 Oeste 22 Oeste 1.1 932.4 -1.4 96
2019-11-17 21:00:00 6.9 7 Oeste 22 Oeste 0 932.6 -1.6 90
2019-11-17 20:00:00 6.4 7 Oeste 26 Noroeste 0 933.2 -1.3 88
2019-11-17 19:00:00 6.7 10 Oeste 30 Oeste 0 933.8 -1.1 84
2019-11-17 18:00:00 6.7 9 Oeste 34 Oeste 0 934.2 -1.2 81
2019-11-17 17:00:00 7.2 10 Oeste 37 Noroeste 0 934.5 -1.8 77
2019-11-17 16:00:00 7.9 11 Oeste 34 Oeste 0 934.9 -1.6 73
2019-11-17 15:00:00 7.7 12 Oeste 39 Oeste 0 935.4 -2.1 73
2019-11-17 14:00:00 7.9 12 Oeste 33 Oeste 0 936.3 -1.5 70
2019-11-17 13:00:00 9.5 12 Oeste 35 Sudoeste 0 936.5 -0.9 59
2019-11-17 12:00:00 8.9 9 Oeste 34 Oeste 0 937.5 0.1 62
2019-11-17 11:00:00 7.1 9 Oeste 30 Oeste 0 937.8 0.7 70
2019-11-17 10:00:00 4.2 8 Oeste 22 Oeste 0 937.4 0.1 81
2019-11-17 09:00:00 2.3 6 Oeste 16 Oeste 0 937.4 0.4 85
2019-11-17 08:00:00 1.1 0 Calma 11 Oeste 0 937.1 0.1 87
2019-11-17 07:00:00 1.1 0 Calma 10 Sudoeste 0 937.3 0.1 85
2019-11-17 06:00:00 1.4 0 Calma 12 Oeste 0 937 -0.3 84
2019-11-17 05:00:00 1.3 0 Calma 11 Sudoeste 0 937 -0.6 83
2019-11-17 04:00:00 1.8 0 Calma 14 Oeste 0 937.2 -0.4 82
2019-11-17 03:00:00 2.1 3 Sudoeste 11 Oeste 0 937.3 -0.3 81
2019-11-17 02:00:00 2.1 0 Calma 8 Sudoeste 0 937.6 -0.1 80
2019-11-17 01:00:00 2.6 0 Calma 15 Oeste 0 937.6 -0.3 79
2019-11-17 00:00:00 3.4 4 Oeste 16 Oeste 0 937.6 0.1 76
2019-11-16 23:00:00 3.6 4 Oeste 17 Oeste 0 937.7 0.1 74
2019-11-16 22:00:00 3.7 2 Oeste 14 Sudoeste 0 937.9 1 72
2019-11-16 21:00:00 5 4 Oeste 18 Oeste 0 937.5 0.9 67
2019-11-16 20:00:00 5 3 Oeste 14 Oeste 0 937.6 1.3 66
2019-11-16 19:00:00 5.9 4 Oeste 19 Noroeste 0 936.9 1.4 59
2019-11-16 18:00:00 7.1 5 Oeste 26 Oeste 0 936.6 1.5 53
2019-11-16 17:00:00 8.5 9 Oeste 30 Oeste 0 936.3 1.2 49
2019-11-16 16:00:00 9.7 9 Oeste 36 Oeste 0 935.5 0.4 47
2019-11-16 15:00:00 9.8 9 Oeste 37 Oeste 0 935.1 -0.1 48
2019-11-16 14:00:00 10 8 Oeste 32 Oeste 0 935.1 0.1 50
2019-11-16 13:00:00 8.6 10 Oeste 29 Oeste 0 935.1 0.3 56
2019-11-16 12:00:00 7.9 7 Oeste 23 Oeste 0 935.2 1 61
2019-11-16 11:00:00 6.3 7 Oeste 28 Oeste 0 935 1.5 71
2019-11-16 10:00:00 3.4 6 Oeste 27 Oeste 0 934.8 2.3 84
2019-11-16 09:00:00 1.8 6 Oeste 25 Oeste 0 934.2 2.7 89
2019-11-16 08:00:00 0.9 5 Oeste 18 Oeste 0 933.5 2.7 89
2019-11-16 07:00:00 1.5 3 Oeste 20 Oeste 0 932.5 2.1 87
2019-11-16 06:00:00 1.8 3 Oeste 18 Oeste 0 931.5 1.3 87
2019-11-16 05:00:00 2 5 Oeste 17 Oeste 0 930.8 0.6 88
2019-11-16 04:00:00 2.5 6 Oeste 18 Noroeste 0 930.4 0.4 88
2019-11-16 03:00:00 3.2 0 Calma 17 Oeste 0 930.2 0.3 87
2019-11-16 02:00:00 3.9 2 Oeste 13 Noroeste 0 930.2 0.7 84
2019-11-16 01:00:00 4.4 6 Oeste 20 Oeste 0 930 0.9 83
2019-11-16 00:00:00 4.2 5 Oeste 17 Oeste 0 929.9 1.2 84
2019-11-15 23:00:00 3.9 4 Oeste 17 Sudoeste 0 929.5 1.2 82
2019-11-15 22:00:00 4.8 6 Oeste 19 Noroeste 0 929.1 1.1 79
2019-11-15 21:00:00 5 5 Oeste 27 Oeste 0 928.7 1 77
2019-11-15 20:00:00 5.6 6 Oeste 19 Oeste 0 928.3 1 76
2019-11-15 19:00:00 6 8 Oeste 24 Oeste 0 928 1.1 73
2019-11-15 18:00:00 6.4 4 Oeste 23 Oeste 0 927.7 0.9 70
2019-11-15 17:00:00 6.9 9 Oeste 26 Oeste 0 927.3 0.6 65
2019-11-15 16:00:00 7.6 9 Oeste 28 Oeste 0 926.9 -0.1 59
2019-11-15 15:00:00 7.7 10 Oeste 37 Oeste 0 926.8 -1.1 57
2019-11-15 14:00:00 8.2 11 Oeste 35 Noroeste 0 926.7 -0.9 56
2019-11-15 13:00:00 7.9 11 Oeste 29 Oeste 0 927 -0.4 61
2019-11-15 12:00:00 7.4 9 Oeste 32 Oeste 0 927.9 0.9 65
2019-11-15 11:00:00 6.7 9 Oeste 32 Oeste 0 927.6 1.2 68
2019-11-15 10:00:00 5.2 11 Oeste 30 Oeste 0 927.4 1.6 78
2019-11-15 09:00:00 3.6 4 Oeste 18 Oeste 0 927 1.4 87
2019-11-15 08:00:00 3.3 0 Calma 17 Oeste 0 926.4 1 87
2019-11-15 07:00:00 3.9 5 Oeste 28 Oeste 0 925.8 0.3 85
2019-11-15 06:00:00 4.3 6 Oeste 32 Oeste 0 925.6 0.4 85
2019-11-15 05:00:00 4.7 8 Oeste 26 Oeste 0 925.4 0.4 83
2019-11-15 04:00:00 5.7 6 Oeste 31 Oeste 0 925.5 0.3 81
2019-11-15 03:00:00 5.7 8 Oeste 34 Oeste 0 925.2 0.1 82
2019-11-15 02:00:00 6.1 14 Oeste 40 Oeste 0 925 0.3 81
2019-11-15 01:00:00 5.8 14 Oeste 49 Oeste 0.4 925.2 0.5 82
2019-11-15 00:00:00 6.6 15 Oeste 36 Oeste 0 925.1 0.3 76
2019-11-14 23:00:00 6.7 13 Oeste 45 Sudoeste 0 924.7 0.2 72
2019-11-14 22:00:00 7.2 13 Oeste 42 Oeste 0 924.7 0.1 68
2019-11-14 21:00:00 6.9 14 Oeste 42 Sudoeste 0 924.8 0.6 69
2019-11-14 20:00:00 7 14 Oeste 44 Sudoeste 0 924.5 0.5 70
2019-11-14 19:00:00 7 11 Oeste 33 Oeste 0 924.6 0.1 70
2019-11-14 18:00:00 7.7 9 Oeste 39 Oeste 0 924.2 -0.7 66
2019-11-14 17:00:00 8.7 15 Oeste 37 Oeste 0 924 -1.4 66
2019-11-14 16:00:00 8.1 11 Oeste 27 Oeste 0 924.5 -1.8 78
2019-11-14 15:00:00 5.3 4 Oeste 25 Oeste 0 924.9 -2 93
2019-11-14 14:00:00 4.3 7 Oeste 33 Oeste 0.6 925.4 -0.2 95
2019-11-14 13:00:00 4.8 8 Oeste 35 Oeste 0.5 926.3 -0.2 93
2019-11-14 12:00:00 6 9 Oeste 46 Oeste 0.5 926.9 -0.3 88
2019-11-14 11:00:00 10.5 14 Oeste 47 Oeste 0 925.6 -1.1 71
2019-11-14 10:00:00 9.2 16 Oeste 49 Oeste 0 926.5 -0.7 75
2019-11-14 09:00:00 9.1 26 Oeste 66 Oeste 0 927.2 -0.4 72
2019-11-14 08:00:00 9.4 14 Oeste 45 Oeste 0 926.7 -1.6 73
2019-11-14 07:00:00 10 14 Oeste 45 Oeste 0 927.2 -2.6 73
2019-11-14 06:00:00 10.3 8 Oeste 26 Sudoeste 0 927.6 -3.3 77
2019-11-14 05:00:00 10.1 4 Oeste 22 Oeste 0 928.3 -3.7 80
2019-11-14 04:00:00 10.3 5 Oeste 24 Oeste 0 929.8 -3 84
2019-11-14 03:00:00 10.5 6 Oeste 22 Oeste 0 930.9 -2.1 86
2019-11-14 02:00:00 10.8 6 Oeste 19 Sudoeste 0 932 -1.9 89
2019-11-14 01:00:00 10.8 3 Sudoeste 24 Sudoeste 0 932.8 -1.6 88
2019-11-14 00:00:00 11.1 6 Sudoeste 23 Sudoeste 0 933 -1.4 89
2019-11-13 23:00:00 11.2 7 Sudoeste 18 Sudoeste 0 933.9 -0.9 87
2019-11-13 22:00:00 11.6 4 Sudoeste 18 Sudoeste 0 934.4 0.2 85
2019-11-13 21:00:00 12.6 8 Oeste 24 Oeste 0 934.4 0.7 83
2019-11-13 20:00:00 12.2 3 Oeste 11 Oeste 0 934.8 1.2 74
2019-11-13 19:00:00 12 0 Calma 9 Norte 0 934.2 1 70
2019-11-13 18:00:00 13.6 0 Calma 18 Noroeste 0 933.7 0.5 61
2019-11-13 17:00:00 15.4 4 Noroeste 26 Oeste 0 933.6 0.9 56
2019-11-13 16:00:00 16.8 4 Noroeste 26 Oeste 0 933.2 0.8 53
2019-11-13 15:00:00 15.8 6 Noroeste 33 Oeste 0 933.2 0.8 58
2019-11-13 14:00:00 14.5 9 Oeste 42 Oeste 0.7 932.7 1.2 67
2019-11-13 13:00:00 14.4 13 Oeste 54 Oeste 0 932.4 1.9 70
2019-11-13 12:00:00 14.1 17 Oeste 45 Oeste 0 932.4 2.3 73
2019-11-13 11:00:00 13.7 20 Oeste 47 Oeste 0 931.5 1.8 80
2019-11-13 10:00:00 10.6 12 Oeste 41 Oeste 0 930.5 1.4 93
2019-11-13 09:00:00 9.9 15 Oeste 37 Oeste 0 930.1 0.7 92
2019-11-13 08:00:00 9.4 10 Oeste 32 Sudoeste 0 929.7 -0.6 91
2019-11-13 07:00:00 9.3 14 Oeste 39 Oeste 0 929.1 -1.5 91
2019-11-13 06:00:00 8.4 12 Oeste 39 Sudoeste 0.1 929.4 -1.8 91
2019-11-13 05:00:00 8.3 10 Oeste 37 Oeste 0.2 930.3 -1.6 91
2019-11-13 04:00:00 8.3 10 Oeste 37 Oeste 0.1 930.6 -2.2 87
2019-11-13 03:00:00 8.2 9 Oeste 36 Oeste 0 931.2 -2.2 82
2019-11-13 02:00:00 9 11 Oeste 33 Oeste 0 931.9 -2.1 75
2019-11-13 01:00:00 9.1 14 Oeste 28 Oeste 0 932.8 -1.8 70
2019-11-13 00:00:00 8.3 10 Oeste 32 Oeste 0 933.4 -1.5 74
2019-11-12 23:00:00 8.3 15 Oeste 35 Oeste 0 934 -0.9 74
2019-11-12 22:00:00 7.6 6 Oeste 23 Noroeste 0 934.6 -0.4 66
2019-11-12 21:00:00 7.7 4 Oeste 18 Oeste 0 934.9 0 62
2019-11-12 20:00:00 8 4 Oeste 15 Oeste 0 934.9 0.1 60
2019-11-12 19:00:00 9.1 8 Oeste 25 Sudoeste 0 935 0.2 55
2019-11-12 18:00:00 10.2 7 Oeste 28 Oeste 0 934.9 0.1 51
2019-11-12 17:00:00 11.4 12 Oeste 37 Noroeste 0 934.8 -0.3 44
2019-11-12 16:00:00 12.7 14 Oeste 39 Oeste 0 934.8 -0.8 43
2019-11-12 15:00:00 13.2 10 Oeste 33 Oeste 0 934.8 -1.8 41
2019-11-12 14:00:00 13.3 11 Oeste 36 Oeste 0 935.1 -1.9 43
2019-11-12 13:00:00 12 9 Oeste 33 Oeste 0 935.6 -1.4 50
2019-11-12 12:00:00 10.6 8 Noroeste 31 Oeste 0 936.6 -0.2 53
2019-11-12 11:00:00 9 6 Oeste 25 Oeste 0 937 0.3 62
2019-11-12 10:00:00 6.1 4 Oeste 18 Oeste 0 937 0.8 79
2019-11-12 09:00:00 4.3 5 Oeste 17 Oeste 0 936.8 0.3 84
2019-11-12 08:00:00 4.2 4 Oeste 18 Oeste 0 936.7 0 82
2019-11-12 07:00:00 4.6 0 Calma 20 Oeste 0 936.2 -0.4 81
2019-11-12 06:00:00 3.5 0 Calma 15 Oeste 0 936.5 -0.3 87
2019-11-12 05:00:00 3.7 0 Calma 15 Oeste 0 936.7 -0.5 85
2019-11-12 04:00:00 4.5 0 Calma 13 Oeste 0 936.6 -0.6 83
2019-11-12 03:00:00 4.4 2 Oeste 14 Oeste 0 936.8 -0.7 87
2019-11-12 02:00:00 4.6 4 Oeste 11 Oeste 0 937.2 -0.3 91
2019-11-12 01:00:00 5.3 5 Oeste 12 Oeste 0 937.2 0 93
2019-11-12 00:00:00 6.1 0 Calma 19 Noroeste 0 937.5 0.7 93
2019-11-11 23:00:00 6.9 2 Oeste 16 Noroeste 0 937.5 0.7 92
2019-11-11 22:00:00 7.6 4 Oeste 25 Oeste 0 937.2 0.9 88
2019-11-11 21:00:00 8.3 4 Oeste 30 Oeste 0 936.8 0.7 85
2019-11-11 20:00:00 8.6 7 Oeste 26 Oeste 0 936.8 1.2 84
2019-11-11 19:00:00 8.8 4 Oeste 24 Oeste 0 936.3 0.7 83
2019-11-11 18:00:00 9.3 5 Noroeste 35 Oeste 0 936.1 0.4 79
2019-11-11 17:00:00 10.2 6 Noroeste 41 Oeste 0 935.6 -0.1 71
2019-11-11 16:00:00 10.5 7 Oeste 34 Oeste 0 935.6 -1.2 67
2019-11-11 15:00:00 9.7 7 Oeste 39 Oeste 0 935.7 -1.9 70
2019-11-11 14:00:00 9.3 11 Oeste 37 Oeste 0 935.7 -2.2 70
2019-11-11 13:00:00 8.5 7 Oeste 32 Oeste 0 936.8 -1.5 74
2019-11-11 12:00:00 7.7 6 Oeste 32 Oeste 0 937.6 -0.5 76
2019-11-11 11:00:00 6.9 8 Oeste 27 Oeste 0 937.9 -0.2 80
2019-11-11 10:00:00 5.7 8 Oeste 31 Oeste 0 938.3 0.3 85
2019-11-11 09:00:00 4.8 4 Oeste 20 Oeste 0 938.1 -0.4 88
2019-11-11 08:00:00 4.3 5 Oeste 17 Oeste 0 938.1 -0.4 88
2019-11-11 07:00:00 3.9 8 Oeste 20 Oeste 0 938 -0.6 88
2019-11-11 06:00:00 3.4 0 Calma 12 Oeste 0 938.5 -0.5 87
2019-11-11 05:00:00 3 0 Calma 11 Oeste 0 938.5 -0.6 88
2019-11-11 04:00:00 2.9 4 Oeste 13 Oeste 0 938.6 -0.2 88
2019-11-11 03:00:00 3.2 3 Oeste 11 Sudoeste 0 939 0.6 87
2019-11-11 02:00:00 3.3 0 Calma 18 Oeste 0 939.1 1.3 87
2019-11-11 01:00:00 3.8 4 Oeste 27 Oeste 0 938.8 1.1 83
2019-11-11 00:00:00 4.2 2 Oeste 26 Oeste 0 938.4 0.8 83
2019-11-10 23:00:00 4.7 6 Oeste 31 Oeste 0 937.8 0.7 83
2019-11-10 22:00:00 4.9 6 Oeste 26 Oeste 0 937.7 1.2 83
2019-11-10 21:00:00 5.9 9 Oeste 34 Oeste 0 937.6 1.5 78
2019-11-10 20:00:00 6.2 9 Oeste 32 Oeste 0 937.1 1.4 73
2019-11-10 19:00:00 7.1 9 Oeste 34 Oeste 0 936.5 1 65
2019-11-10 18:00:00 8 7 Oeste 39 Oeste 0 936.1 0.3 60
2019-11-10 17:00:00 9.1 12 Oeste 43 Oeste 0 935.7 -0.8 55
2019-11-10 16:00:00 9.8 13 Oeste 46 Oeste 0 935.5 -1.5 52
2019-11-10 15:00:00 9.3 10 Oeste 41 Oeste 0 935.8 -1.6 52
2019-11-10 14:00:00 9.4 11 Oeste 36 Oeste 0 936.5 -1 50
2019-11-10 13:00:00 9.6 9 Noroeste 37 Oeste 0 937 -0.9 51
2019-11-10 12:00:00 9.3 11 Oeste 35 Oeste 0 937.4 -0.7 54
2019-11-10 11:00:00 8.3 16 Oeste 43 Oeste 0 937.5 0 63
2019-11-10 10:00:00 6.6 9 Oeste 30 Oeste 0 937.9 1 72
2019-11-10 09:00:00 5.4 4 Oeste 17 Oeste 0 938.1 1.5 86
2019-11-10 08:00:00 5.9 0 Calma 27 Noroeste 0 937.5 1 85
2019-11-10 07:00:00 7.2 5 Oeste 28 Oeste 0 936.9 0.8 80
2019-11-10 06:00:00 7 7 Oeste 26 Oeste 0 936.6 0.4 86
2019-11-10 05:00:00 7.5 5 Oeste 27 Oeste 0 936.5 0.2 89
2019-11-10 04:00:00 8.3 10 Oeste 34 Oeste 0 936.1 -0.7 87
2019-11-10 03:00:00 9.3 3 Oeste 31 Oeste 0 936.2 -0.8 90
2019-11-10 02:00:00 9 15 Oeste 37 Noroeste 0 936.3 -1.3 89
2019-11-10 01:00:00 8.6 12 Oeste 29 Noroeste 0 936.8 -1.6 90
2019-11-10 00:00:00 8.2 11 Oeste 33 Oeste 0 937 -1.9 90